sensor_id;sensor_type;location;lat;lon;timestamp;temperature;humidity
10566;DHT22;5331;48.148;16.326;2023-04-24T00:01:33;14.00;1.00
10566;DHT22;5331;48.148;16.326;2023-04-24T00:04:03;13.90;1.00
10566;DHT22;5331;48.148;16.326;2023-04-24T00:06:31;13.90;1.00
10566;DHT22;5331;48.148;16.326;2023-04-24T00:09:00;13.90;1.00
10566;DHT22;5331;48.148;16.326;2023-04-24T00:11:27;13.90;1.00
10566;DHT22;5331;48.148;16.326;2023-04-24T00:13:54;13.90;1.00
10566;DHT22;5331;48.148;16.326;2023-04-24T00:16:21;13.80;1.00
10566;DHT22;5331;48.148;16.326;2023-04-24T00:18:48;13.80;1.00
10566;DHT22;5331;48.148;16.326;2023-04-24T00:21:16;13.80;1.00
10566;DHT22;5331;48.148;16.326;2023-04-24T00:23:43;13.80;1.00
10566;DHT22;5331;48.148;16.326;2023-04-24T00:26:10;13.80;1.00
10566;DHT22;5331;48.148;16.326;2023-04-24T00:28:37;13.70;1.00
10566;DHT22;5331;48.148;16.326;2023-04-24T00:31:04;13.70;1.00
10566;DHT22;5331;48.148;16.326;2023-04-24T00:33:31;13.60;1.00
10566;DHT22;5331;48.148;16.326;2023-04-24T00:35:58;13.60;1.00
10566;DHT22;5331;48.148;16.326;2023-04-24T00:38:26;13.60;1.00
10566;DHT22;5331;48.148;16.326;2023-04-24T00:40:53;13.60;1.00
10566;DHT22;5331;48.148;16.326;2023-04-24T00:43:20;13.60;1.00
10566;DHT22;5331;48.148;16.326;2023-04-24T00:45:47;13.60;1.00
10566;DHT22;5331;48.148;16.326;2023-04-24T00:48:16;13.50;1.00
10566;DHT22;5331;48.148;16.326;2023-04-24T00:50:43;13.50;1.00
10566;DHT22;5331;48.148;16.326;2023-04-24T00:53:10;13.40;1.00
10566;DHT22;5331;48.148;16.326;2023-04-24T00:55:39;13.30;1.00
10566;DHT22;5331;48.148;16.326;2023-04-24T00:58:06;13.20;1.00
10566;DHT22;5331;48.148;16.326;2023-04-24T01:00:33;13.10;1.00
10566;DHT22;5331;48.148;16.326;2023-04-24T01:03:01;13.10;1.00
10566;DHT22;5331;48.148;16.326;2023-04-24T01:05:32;13.00;1.00
10566;DHT22;5331;48.148;16.326;2023-04-24T01:07:59;13.00;1.00
10566;DHT22;5331;48.148;16.326;2023-04-24T01:10:29;13.00;1.00
10566;DHT22;5331;48.148;16.326;2023-04-24T01:12:59;12.90;1.00
10566;DHT22;5331;48.148;16.326;2023-04-24T01:15:26;12.90;1.00
10566;DHT22;5331;48.148;16.326;2023-04-24T01:17:53;12.80;1.00
10566;DHT22;5331;48.148;16.326;2023-04-24T01:20:21;12.80;1.00
10566;DHT22;5331;48.148;16.326;2023-04-24T01:22:51;12.70;1.00
10566;DHT22;5331;48.148;16.326;2023-04-24T01:25:18;12.70;1.00
10566;DHT22;5331;48.148;16.326;2023-04-24T01:27:45;12.60;1.00
10566;DHT22;5331;48.148;16.326;2023-04-24T01:30:13;12.50;1.00
10566;DHT22;5331;48.148;16.326;2023-04-24T01:32:40;12.50;1.00
10566;DHT22;5331;48.148;16.326;2023-04-24T01:35:09;12.50;1.00
10566;DHT22;5331;48.148;16.326;2023-04-24T01:37:37;12.40;1.00
10566;DHT22;5331;48.148;16.326;2023-04-24T01:40:06;12.30;1.00
10566;DHT22;5331;48.148;16.326;2023-04-24T01:42:34;12.30;1.00
10566;DHT22;5331;48.148;16.326;2023-04-24T01:45:03;12.30;1.00
10566;DHT22;5331;48.148;16.326;2023-04-24T01:47:31;12.20;1.00
10566;DHT22;5331;48.148;16.326;2023-04-24T01:49:58;12.20;1.00
10566;DHT22;5331;48.148;16.326;2023-04-24T01:52:25;12.10;1.00
10566;DHT22;5331;48.148;16.326;2023-04-24T01:54:54;12.10;1.00
10566;DHT22;5331;48.148;16.326;2023-04-24T01:57:23;12.10;1.00
10566;DHT22;5331;48.148;16.326;2023-04-24T01:59:50;12.10;1.00
10566;DHT22;5331;48.148;16.326;2023-04-24T02:02:18;12.10;1.00
10566;DHT22;5331;48.148;16.326;2023-04-24T02:04:46;12.20;1.00
10566;DHT22;5331;48.148;16.326;2023-04-24T02:07:13;12.30;1.00
10566;DHT22;5331;48.148;16.326;2023-04-24T02:09:40;12.40;1.00
10566;DHT22;5331;48.148;16.326;2023-04-24T02:12:07;12.40;1.00
10566;DHT22;5331;48.148;16.326;2023-04-24T02:14:35;12.40;1.00
10566;DHT22;5331;48.148;16.326;2023-04-24T02:17:02;12.40;1.00
10566;DHT22;5331;48.148;16.326;2023-04-24T02:19:30;12.40;1.00
10566;DHT22;5331;48.148;16.326;2023-04-24T02:21:57;12.30;1.00
10566;DHT22;5331;48.148;16.326;2023-04-24T02:24:24;12.30;1.00
10566;DHT22;5331;48.148;16.326;2023-04-24T02:26:51;12.20;1.00
10566;DHT22;5331;48.148;16.326;2023-04-24T02:29:18;12.30;1.00
10566;DHT22;5331;48.148;16.326;2023-04-24T02:31:46;12.30;1.00
10566;DHT22;5331;48.148;16.326;2023-04-24T02:34:13;12.40;1.00
10566;DHT22;5331;48.148;16.326;2023-04-24T02:36:41;12.40;1.00
10566;DHT22;5331;48.148;16.326;2023-04-24T02:39:08;12.40;1.00
10566;DHT22;5331;48.148;16.326;2023-04-24T02:41:35;12.30;1.00
10566;DHT22;5331;48.148;16.326;2023-04-24T02:44:02;12.30;1.00
10566;DHT22;5331;48.148;16.326;2023-04-24T02:46:29;12.30;1.00
10566;DHT22;5331;48.148;16.326;2023-04-24T02:48:57;12.30;1.00
10566;DHT22;5331;48.148;16.326;2023-04-24T02:51:24;12.30;1.00
10566;DHT22;5331;48.148;16.326;2023-04-24T02:53:52;12.30;1.00
10566;DHT22;5331;48.148;16.326;2023-04-24T02:56:19;12.30;1.00
10566;DHT22;5331;48.148;16.326;2023-04-24T02:58:46;12.30;1.00
10566;DHT22;5331;48.148;16.326;2023-04-24T03:01:13;12.20;1.00
10566;DHT22;5331;48.148;16.326;2023-04-24T03:03:40;12.20;1.00
10566;DHT22;5331;48.148;16.326;2023-04-24T03:06:08;12.20;1.00
10566;DHT22;5331;48.148;16.326;2023-04-24T03:08:35;12.20;1.00
10566;DHT22;5331;48.148;16.326;2023-04-24T03:11:02;12.20;1.00
10566;DHT22;5331;48.148;16.326;2023-04-24T03:13:29;12.20;1.00
10566;DHT22;5331;48.148;16.326;2023-04-24T03:15:56;12.20;1.00
10566;DHT22;5331;48.148;16.326;2023-04-24T03:18:23;12.10;1.00
10566;DHT22;5331;48.148;16.326;2023-04-24T03:20:51;12.10;1.00
10566;DHT22;5331;48.148;16.326;2023-04-24T03:23:19;12.20;1.00
10566;DHT22;5331;48.148;16.326;2023-04-24T03:25:46;12.20;1.00
10566;DHT22;5331;48.148;16.326;2023-04-24T03:28:14;12.10;1.00
10566;DHT22;5331;48.148;16.326;2023-04-24T03:30:41;12.10;1.00
10566;DHT22;5331;48.148;16.326;2023-04-24T03:33:08;12.10;1.00
10566;DHT22;5331;48.148;16.326;2023-04-24T03:35:35;12.10;1.00
10566;DHT22;5331;48.148;16.326;2023-04-24T03:38:02;12.10;1.00
10566;DHT22;5331;48.148;16.326;2023-04-24T03:40:31;12.20;1.00
10566;DHT22;5331;48.148;16.326;2023-04-24T03:42:59;12.20;1.00
10566;DHT22;5331;48.148;16.326;2023-04-24T03:45:26;12.30;1.00
10566;DHT22;5331;48.148;16.326;2023-04-24T03:47:53;12.30;1.00
10566;DHT22;5331;48.148;16.326;2023-04-24T03:50:19;12.40;1.00
10566;DHT22;5331;48.148;16.326;2023-04-24T03:52:46;12.40;1.00
10566;DHT22;5331;48.148;16.326;2023-04-24T03:55:13;12.50;1.00
10566;DHT22;5331;48.148;16.326;2023-04-24T03:57:42;12.50;1.00
10566;DHT22;5331;48.148;16.326;2023-04-24T04:00:10;12.70;1.00
10566;DHT22;5331;48.148;16.326;2023-04-24T04:02:37;12.70;1.00
10566;DHT22;5331;48.148;16.326;2023-04-24T04:05:04;12.70;1.00
10566;DHT22;5331;48.148;16.326;2023-04-24T04:07:31;12.80;1.00
10566;DHT22;5331;48.148;16.326;2023-04-24T04:09:58;12.80;1.00
10566;DHT22;5331;48.148;16.326;2023-04-24T04:12:25;12.80;1.00
10566;DHT22;5331;48.148;16.326;2023-04-24T04:14:54;12.90;1.00
10566;DHT22;5331;48.148;16.326;2023-04-24T04:17:20;12.90;1.00
10566;DHT22;5331;48.148;16.326;2023-04-24T04:19:47;12.90;1.00
10566;DHT22;5331;48.148;16.326;2023-04-24T04:22:14;12.90;1.00
10566;DHT22;5331;48.148;16.326;2023-04-24T04:24:41;12.90;1.00
10566;DHT22;5331;48.148;16.326;2023-04-24T04:27:08;13.00;1.00
10566;DHT22;5331;48.148;16.326;2023-04-24T04:29:36;13.00;1.00
10566;DHT22;5331;48.148;16.326;2023-04-24T04:32:05;13.00;1.00
10566;DHT22;5331;48.148;16.326;2023-04-24T04:34:32;13.10;1.00
10566;DHT22;5331;48.148;16.326;2023-04-24T04:36:59;13.10;1.00
10566;DHT22;5331;48.148;16.326;2023-04-24T04:39:27;13.20;1.00
10566;DHT22;5331;48.148;16.326;2023-04-24T04:41:55;13.20;1.00
10566;DHT22;5331;48.148;16.326;2023-04-24T04:44:22;13.30;1.00
10566;DHT22;5331;48.148;16.326;2023-04-24T04:46:50;13.20;1.00
10566;DHT22;5331;48.148;16.326;2023-04-24T04:49:20;13.30;1.00
10566;DHT22;5331;48.148;16.326;2023-04-24T04:51:47;13.30;1.00
10566;DHT22;5331;48.148;16.326;2023-04-24T04:54:14;13.30;1.00
10566;DHT22;5331;48.148;16.326;2023-04-24T04:56:41;13.30;1.00
10566;DHT22;5331;48.148;16.326;2023-04-24T04:59:08;13.30;1.00
10566;DHT22;5331;48.148;16.326;2023-04-24T05:01:35;13.30;1.00
10566;DHT22;5331;48.148;16.326;2023-04-24T05:04:02;13.40;1.00
10566;DHT22;5331;48.148;16.326;2023-04-24T05:06:30;13.40;1.00
10566;DHT22;5331;48.148;16.326;2023-04-24T05:08:57;13.50;1.00
10566;DHT22;5331;48.148;16.326;2023-04-24T05:11:24;13.70;1.00
10566;DHT22;5331;48.148;16.326;2023-04-24T05:13:51;13.70;1.00
10566;DHT22;5331;48.148;16.326;2023-04-24T05:16:18;13.80;1.00
10566;DHT22;5331;48.148;16.326;2023-04-24T05:18:45;13.90;1.00
10566;DHT22;5331;48.148;16.326;2023-04-24T05:21:12;14.00;1.00
10566;DHT22;5331;48.148;16.326;2023-04-24T05:23:40;14.00;1.00
10566;DHT22;5331;48.148;16.326;2023-04-24T05:26:07;14.00;1.00
10566;DHT22;5331;48.148;16.326;2023-04-24T05:28:34;14.10;1.00
10566;DHT22;5331;48.148;16.326;2023-04-24T05:31:02;14.20;1.00
10566;DHT22;5331;48.148;16.326;2023-04-24T05:33:29;14.30;1.00
10566;DHT22;5331;48.148;16.326;2023-04-24T05:35:56;14.40;1.00
10566;DHT22;5331;48.148;16.326;2023-04-24T05:38:23;14.50;1.00
10566;DHT22;5331;48.148;16.326;2023-04-24T05:40:52;14.60;1.00
10566;DHT22;5331;48.148;16.326;2023-04-24T05:43:19;14.70;1.00
10566;DHT22;5331;48.148;16.326;2023-04-24T05:45:46;14.80;1.00
10566;DHT22;5331;48.148;16.326;2023-04-24T05:48:13;14.90;1.00
10566;DHT22;5331;48.148;16.326;2023-04-24T05:50:40;14.90;1.00
10566;DHT22;5331;48.148;16.326;2023-04-24T05:53:07;15.00;1.00
10566;DHT22;5331;48.148;16.326;2023-04-24T05:55:36;15.00;1.00
10566;DHT22;5331;48.148;16.326;2023-04-24T05:58:04;15.10;1.00
10566;DHT22;5331;48.148;16.326;2023-04-24T06:00:31;15.00;1.00
10566;DHT22;5331;48.148;16.326;2023-04-24T06:03:00;15.00;1.00
10566;DHT22;5331;48.148;16.326;2023-04-24T06:05:28;15.00;1.00
10566;DHT22;5331;48.148;16.326;2023-04-24T06:07:55;14.90;1.00
10566;DHT22;5331;48.148;16.326;2023-04-24T06:10:23;14.90;1.00
10566;DHT22;5331;48.148;16.326;2023-04-24T06:12:50;14.90;1.00
10566;DHT22;5331;48.148;16.326;2023-04-24T06:15:18;14.90;1.00
10566;DHT22;5331;48.148;16.326;2023-04-24T06:17:45;14.90;1.00
10566;DHT22;5331;48.148;16.326;2023-04-24T06:20:12;14.90;1.00
10566;DHT22;5331;48.148;16.326;2023-04-24T06:22:39;14.90;1.00
10566;DHT22;5331;48.148;16.326;2023-04-24T06:25:07;14.90;1.00
10566;DHT22;5331;48.148;16.326;2023-04-24T06:27:34;14.90;1.00
10566;DHT22;5331;48.148;16.326;2023-04-24T06:30:01;15.00;1.00
10566;DHT22;5331;48.148;16.326;2023-04-24T06:32:30;15.00;1.00
10566;DHT22;5331;48.148;16.326;2023-04-24T06:34:57;15.00;1.00
10566;DHT22;5331;48.148;16.326;2023-04-24T06:37:24;15.00;1.00
10566;DHT22;5331;48.148;16.326;2023-04-24T06:39:51;15.00;1.00
10566;DHT22;5331;48.148;16.326;2023-04-24T06:42:18;15.10;1.00
10566;DHT22;5331;48.148;16.326;2023-04-24T06:44:46;15.10;1.00
10566;DHT22;5331;48.148;16.326;2023-04-24T06:47:13;15.20;1.00
10566;DHT22;5331;48.148;16.326;2023-04-24T06:49:42;15.20;1.00
10566;DHT22;5331;48.148;16.326;2023-04-24T06:52:09;15.30;1.00
10566;DHT22;5331;48.148;16.326;2023-04-24T06:54:36;15.40;1.00
10566;DHT22;5331;48.148;16.326;2023-04-24T06:57:03;15.40;1.00
10566;DHT22;5331;48.148;16.326;2023-04-24T06:59:30;15.40;1.00
10566;DHT22;5331;48.148;16.326;2023-04-24T07:01:57;15.30;1.00
10566;DHT22;5331;48.148;16.326;2023-04-24T07:04:24;15.30;1.00
10566;DHT22;5331;48.148;16.326;2023-04-24T07:06:53;15.30;1.00
10566;DHT22;5331;48.148;16.326;2023-04-24T07:09:21;15.30;1.00
10566;DHT22;5331;48.148;16.326;2023-04-24T07:11:49;15.40;1.00
10566;DHT22;5331;48.148;16.326;2023-04-24T07:14:17;15.30;1.00
10566;DHT22;5331;48.148;16.326;2023-04-24T07:16:44;15.30;1.00
10566;DHT22;5331;48.148;16.326;2023-04-24T07:19:12;15.40;1.00
10566;DHT22;5331;48.148;16.326;2023-04-24T07:21:39;15.30;1.00
10566;DHT22;5331;48.148;16.326;2023-04-24T07:24:07;15.40;1.00
10566;DHT22;5331;48.148;16.326;2023-04-24T07:26:37;15.40;1.00
10566;DHT22;5331;48.148;16.326;2023-04-24T07:29:04;15.40;1.00
10566;DHT22;5331;48.148;16.326;2023-04-24T07:31:31;15.40;1.00
10566;DHT22;5331;48.148;16.326;2023-04-24T07:33:58;15.40;1.00
10566;DHT22;5331;48.148;16.326;2023-04-24T07:36:25;15.40;1.00
10566;DHT22;5331;48.148;16.326;2023-04-24T07:38:54;15.30;1.00
10566;DHT22;5331;48.148;16.326;2023-04-24T07:41:23;15.30;1.00
10566;DHT22;5331;48.148;16.326;2023-04-24T07:43:50;15.20;1.00
10566;DHT22;5331;48.148;16.326;2023-04-24T07:46:18;15.20;1.00
10566;DHT22;5331;48.148;16.326;2023-04-24T07:48:45;15.10;1.00
10566;DHT22;5331;48.148;16.326;2023-04-24T07:51:14;15.00;1.00
10566;DHT22;5331;48.148;16.326;2023-04-24T07:53:41;14.90;1.00
10566;DHT22;5331;48.148;16.326;2023-04-24T07:56:08;14.90;1.00
10566;DHT22;5331;48.148;16.326;2023-04-24T07:58:36;14.80;1.00
10566;DHT22;5331;48.148;16.326;2023-04-24T08:01:03;14.70;1.00
10566;DHT22;5331;48.148;16.326;2023-04-24T08:03:30;14.60;1.00
10566;DHT22;5331;48.148;16.326;2023-04-24T08:05:57;14.70;1.00
10566;DHT22;5331;48.148;16.326;2023-04-24T08:08:25;14.70;1.00
10566;DHT22;5331;48.148;16.326;2023-04-24T08:10:52;14.60;1.00
10566;DHT22;5331;48.148;16.326;2023-04-24T08:13:19;14.70;1.00
10566;DHT22;5331;48.148;16.326;2023-04-24T08:15:47;14.70;1.00
10566;DHT22;5331;48.148;16.326;2023-04-24T08:18:14;14.70;1.00
10566;DHT22;5331;48.148;16.326;2023-04-24T08:20:41;14.70;1.00
10566;DHT22;5331;48.148;16.326;2023-04-24T08:23:08;14.60;1.00
10566;DHT22;5331;48.148;16.326;2023-04-24T08:25:35;14.60;1.00
10566;DHT22;5331;48.148;16.326;2023-04-24T08:28:02;14.70;1.00
10566;DHT22;5331;48.148;16.326;2023-04-24T08:30:30;14.70;1.00
10566;DHT22;5331;48.148;16.326;2023-04-24T08:32:58;14.60;1.00
10566;DHT22;5331;48.148;16.326;2023-04-24T08:35:25;14.50;1.00
10566;DHT22;5331;48.148;16.326;2023-04-24T08:37:53;14.40;1.00
10566;DHT22;5331;48.148;16.326;2023-04-24T08:40:22;14.20;1.00
10566;DHT22;5331;48.148;16.326;2023-04-24T08:42:55;14.20;1.00
10566;DHT22;5331;48.148;16.326;2023-04-24T08:45:23;14.10;1.00
10566;DHT22;5331;48.148;16.326;2023-04-24T08:47:52;13.90;1.00
10566;DHT22;5331;48.148;16.326;2023-04-24T08:50:22;13.70;1.00
10566;DHT22;5331;48.148;16.326;2023-04-24T08:52:50;13.70;1.00
10566;DHT22;5331;48.148;16.326;2023-04-24T08:55:19;13.60;1.00
10566;DHT22;5331;48.148;16.326;2023-04-24T08:57:49;13.50;1.00
10566;DHT22;5331;48.148;16.326;2023-04-24T09:00:17;13.50;1.00
10566;DHT22;5331;48.148;16.326;2023-04-24T09:02:45;13.50;1.00
10566;DHT22;5331;48.148;16.326;2023-04-24T09:05:14;13.40;1.00
10566;DHT22;5331;48.148;16.326;2023-04-24T09:07:46;13.40;1.00
10566;DHT22;5331;48.148;16.326;2023-04-24T09:10:14;13.50;1.00
10566;DHT22;5331;48.148;16.326;2023-04-24T09:12:42;13.40;1.00
10566;DHT22;5331;48.148;16.326;2023-04-24T09:15:11;13.30;1.00
10566;DHT22;5331;48.148;16.326;2023-04-24T09:17:38;13.30;1.00
10566;DHT22;5331;48.148;16.326;2023-04-24T09:20:06;13.30;1.00
10566;DHT22;5331;48.148;16.326;2023-04-24T09:22:33;13.30;1.00
10566;DHT22;5331;48.148;16.326;2023-04-24T09:25:04;13.30;1.00
10566;DHT22;5331;48.148;16.326;2023-04-24T09:27:32;13.30;1.00
10566;DHT22;5331;48.148;16.326;2023-04-24T09:30:00;13.30;1.00
10566;DHT22;5331;48.148;16.326;2023-04-24T09:32:28;13.40;1.00
10566;DHT22;5331;48.148;16.326;2023-04-24T09:35:11;13.30;1.00
10566;DHT22;5331;48.148;16.326;2023-04-24T09:37:39;13.40;1.00
10566;DHT22;5331;48.148;16.326;2023-04-24T09:40:15;13.40;1.00
10566;DHT22;5331;48.148;16.326;2023-04-24T09:42:50;13.40;1.00
10566;DHT22;5331;48.148;16.326;2023-04-24T09:45:18;13.40;1.00
10566;DHT22;5331;48.148;16.326;2023-04-24T09:47:45;13.30;1.00
10566;DHT22;5331;48.148;16.326;2023-04-24T09:50:14;13.30;1.00
10566;DHT22;5331;48.148;16.326;2023-04-24T09:52:45;13.30;1.00
10566;DHT22;5331;48.148;16.326;2023-04-24T09:55:21;13.30;1.00
10566;DHT22;5331;48.148;16.326;2023-04-24T09:57:50;13.30;1.00
10566;DHT22;5331;48.148;16.326;2023-04-24T10:00:25;13.30;1.00
10566;DHT22;5331;48.148;16.326;2023-04-24T10:02:56;13.30;1.00
10566;DHT22;5331;48.148;16.326;2023-04-24T10:05:24;13.30;1.00
10566;DHT22;5331;48.148;16.326;2023-04-24T10:07:52;13.20;1.00
10566;DHT22;5331;48.148;16.326;2023-04-24T10:10:24;13.30;1.00
10566;DHT22;5331;48.148;16.326;2023-04-24T10:12:51;13.30;1.00
10566;DHT22;5331;48.148;16.326;2023-04-24T10:15:19;13.30;1.00
10566;DHT22;5331;48.148;16.326;2023-04-24T10:17:48;13.40;1.00
10566;DHT22;5331;48.148;16.326;2023-04-24T10:20:19;13.40;1.00
10566;DHT22;5331;48.148;16.326;2023-04-24T10:22:49;13.30;1.00
10566;DHT22;5331;48.148;16.326;2023-04-24T10:25:19;13.40;1.00
10566;DHT22;5331;48.148;16.326;2023-04-24T10:27:50;13.40;1.00
10566;DHT22;5331;48.148;16.326;2023-04-24T10:30:18;13.40;1.00
10566;DHT22;5331;48.148;16.326;2023-04-24T10:32:45;13.30;1.00
10566;DHT22;5331;48.148;16.326;2023-04-24T10:35:13;13.30;1.00
10566;DHT22;5331;48.148;16.326;2023-04-24T10:37:44;13.30;1.00
10566;DHT22;5331;48.148;16.326;2023-04-24T10:40:16;13.30;1.00
10566;DHT22;5331;48.148;16.326;2023-04-24T10:42:51;13.30;1.00
10566;DHT22;5331;48.148;16.326;2023-04-24T10:45:19;13.30;1.00
10566;DHT22;5331;48.148;16.326;2023-04-24T10:47:57;13.40;1.00
10566;DHT22;5331;48.148;16.326;2023-04-24T10:50:26;13.40;1.00
10566;DHT22;5331;48.148;16.326;2023-04-24T10:52:55;13.40;1.00
10566;DHT22;5331;48.148;16.326;2023-04-24T10:55:42;13.40;1.00
10566;DHT22;5331;48.148;16.326;2023-04-24T10:58:11;13.40;1.00
10566;DHT22;5331;48.148;16.326;2023-04-24T11:00:39;13.40;1.00
10566;DHT22;5331;48.148;16.326;2023-04-24T11:03:08;13.40;1.00
10566;DHT22;5331;48.148;16.326;2023-04-24T11:05:54;13.50;1.00
10566;DHT22;5331;48.148;16.326;2023-04-24T11:08:38;13.50;1.00
10566;DHT22;5331;48.148;16.326;2023-04-24T11:11:10;13.50;1.00
10566;DHT22;5331;48.148;16.326;2023-04-24T11:14:04;13.50;1.00
10566;DHT22;5331;48.148;16.326;2023-04-24T11:16:34;13.60;1.00
10566;DHT22;5331;48.148;16.326;2023-04-24T11:19:02;13.60;1.00
10566;DHT22;5331;48.148;16.326;2023-04-24T11:21:40;13.60;1.00
10566;DHT22;5331;48.148;16.326;2023-04-24T11:24:27;13.60;1.00
10566;DHT22;5331;48.148;16.326;2023-04-24T11:26:55;13.50;1.00
10566;DHT22;5331;48.148;16.326;2023-04-24T11:29:38;13.50;1.00
10566;DHT22;5331;48.148;16.326;2023-04-24T11:32:15;13.50;1.00
10566;DHT22;5331;48.148;16.326;2023-04-24T11:34:46;13.50;1.00
10566;DHT22;5331;48.148;16.326;2023-04-24T11:37:13;13.50;1.00
10566;DHT22;5331;48.148;16.326;2023-04-24T11:39:40;13.50;1.00
10566;DHT22;5331;48.148;16.326;2023-04-24T11:42:07;13.50;1.00
10566;DHT22;5331;48.148;16.326;2023-04-24T11:44:36;13.50;1.00
10566;DHT22;5331;48.148;16.326;2023-04-24T11:47:04;13.50;1.00
10566;DHT22;5331;48.148;16.326;2023-04-24T11:49:32;13.60;1.00
10566;DHT22;5331;48.148;16.326;2023-04-24T11:52:00;13.50;1.00
10566;DHT22;5331;48.148;16.326;2023-04-24T11:54:27;13.50;1.00
10566;DHT22;5331;48.148;16.326;2023-04-24T11:56:55;13.50;1.00
10566;DHT22;5331;48.148;16.326;2023-04-24T11:59:22;13.60;1.00
10566;DHT22;5331;48.148;16.326;2023-04-24T12:01:51;13.70;1.00
10566;DHT22;5331;48.148;16.326;2023-04-24T12:04:18;13.70;1.00
10566;DHT22;5331;48.148;16.326;2023-04-24T12:07:00;13.70;1.00
10566;DHT22;5331;48.148;16.326;2023-04-24T12:09:27;13.90;1.00
10566;DHT22;5331;48.148;16.326;2023-04-24T12:11:55;14.00;1.00
10566;DHT22;5331;48.148;16.326;2023-04-24T12:14:22;14.10;1.00
10566;DHT22;5331;48.148;16.326;2023-04-24T12:16:51;14.10;1.00
10566;DHT22;5331;48.148;16.326;2023-04-24T12:19:20;14.20;1.00
10566;DHT22;5331;48.148;16.326;2023-04-24T12:21:59;14.30;1.00
10566;DHT22;5331;48.148;16.326;2023-04-24T12:24:26;14.30;1.00
10566;DHT22;5331;48.148;16.326;2023-04-24T12:26:53;14.40;1.00
10566;DHT22;5331;48.148;16.326;2023-04-24T12:29:21;14.30;1.00
10566;DHT22;5331;48.148;16.326;2023-04-24T12:31:48;14.40;1.00
10566;DHT22;5331;48.148;16.326;2023-04-24T12:34:19;14.40;1.00
10566;DHT22;5331;48.148;16.326;2023-04-24T12:36:47;14.40;1.00
10566;DHT22;5331;48.148;16.326;2023-04-24T12:39:17;14.40;1.00
10566;DHT22;5331;48.148;16.326;2023-04-24T12:41:54;14.50;1.00
10566;DHT22;5331;48.148;16.326;2023-04-24T12:44:29;14.50;1.00
10566;DHT22;5331;48.148;16.326;2023-04-24T12:46:56;14.50;1.00
10566;DHT22;5331;48.148;16.326;2023-04-24T12:49:24;14.60;1.00
10566;DHT22;5331;48.148;16.326;2023-04-24T12:51:51;14.60;1.00
10566;DHT22;5331;48.148;16.326;2023-04-24T12:54:18;14.60;1.00
10566;DHT22;5331;48.148;16.326;2023-04-24T12:56:45;14.60;1.00
10566;DHT22;5331;48.148;16.326;2023-04-24T12:59:12;14.70;1.00
10566;DHT22;5331;48.148;16.326;2023-04-24T13:01:40;14.70;1.00
10566;DHT22;5331;48.148;16.326;2023-04-24T13:04:07;14.70;1.00
10566;DHT22;5331;48.148;16.326;2023-04-24T13:06:35;14.70;1.00
10566;DHT22;5331;48.148;16.326;2023-04-24T13:09:02;14.60;1.00
10566;DHT22;5331;48.148;16.326;2023-04-24T13:11:29;14.60;1.00
10566;DHT22;5331;48.148;16.326;2023-04-24T13:13:56;14.50;1.00
10566;DHT22;5331;48.148;16.326;2023-04-24T13:16:23;14.50;1.00
10566;DHT22;5331;48.148;16.326;2023-04-24T13:18:50;14.50;1.00
10566;DHT22;5331;48.148;16.326;2023-04-24T13:21:17;14.50;1.00
10566;DHT22;5331;48.148;16.326;2023-04-24T13:23:46;14.60;1.00
10566;DHT22;5331;48.148;16.326;2023-04-24T13:26:13;14.70;1.00
10566;DHT22;5331;48.148;16.326;2023-04-24T13:28:39;14.70;1.00
10566;DHT22;5331;48.148;16.326;2023-04-24T13:31:06;14.80;1.00
10566;DHT22;5331;48.148;16.326;2023-04-24T13:33:33;14.90;1.00
10566;DHT22;5331;48.148;16.326;2023-04-24T13:36:00;14.90;1.00
10566;DHT22;5331;48.148;16.326;2023-04-24T13:38:27;14.90;1.00
10566;DHT22;5331;48.148;16.326;2023-04-24T13:40:56;14.90;1.00
10566;DHT22;5331;48.148;16.326;2023-04-24T13:43:23;14.80;1.00
10566;DHT22;5331;48.148;16.326;2023-04-24T13:45:50;14.80;1.00
10566;DHT22;5331;48.148;16.326;2023-04-24T13:48:16;14.80;1.00
10566;DHT22;5331;48.148;16.326;2023-04-24T13:50:43;14.80;1.00
10566;DHT22;5331;48.148;16.326;2023-04-24T13:53:13;14.70;1.00
10566;DHT22;5331;48.148;16.326;2023-04-24T13:55:40;14.60;1.00
10566;DHT22;5331;48.148;16.326;2023-04-24T13:58:09;14.60;1.00
10566;DHT22;5331;48.148;16.326;2023-04-24T14:00:36;14.50;1.00
10566;DHT22;5331;48.148;16.326;2023-04-24T14:03:04;14.40;1.00
10566;DHT22;5331;48.148;16.326;2023-04-24T14:05:31;14.40;1.00
10566;DHT22;5331;48.148;16.326;2023-04-24T14:07:58;14.40;1.00
10566;DHT22;5331;48.148;16.326;2023-04-24T14:10:25;14.40;1.00
10566;DHT22;5331;48.148;16.326;2023-04-24T14:12:52;14.30;1.00
10566;DHT22;5331;48.148;16.326;2023-04-24T14:15:21;14.30;1.00
10566;DHT22;5331;48.148;16.326;2023-04-24T14:17:48;14.20;1.00
10566;DHT22;5331;48.148;16.326;2023-04-24T14:20:15;14.30;1.00
10566;DHT22;5331;48.148;16.326;2023-04-24T14:22:42;14.30;1.00
10566;DHT22;5331;48.148;16.326;2023-04-24T14:25:09;14.30;1.00
10566;DHT22;5331;48.148;16.326;2023-04-24T14:27:36;14.30;1.00
10566;DHT22;5331;48.148;16.326;2023-04-24T14:30:04;14.20;1.00
10566;DHT22;5331;48.148;16.326;2023-04-24T14:32:33;14.20;1.00
10566;DHT22;5331;48.148;16.326;2023-04-24T14:35:00;14.20;1.00
10566;DHT22;5331;48.148;16.326;2023-04-24T14:37:27;14.20;1.00
10566;DHT22;5331;48.148;16.326;2023-04-24T14:39:54;14.20;1.00
10566;DHT22;5331;48.148;16.326;2023-04-24T14:42:21;14.10;1.00
10566;DHT22;5331;48.148;16.326;2023-04-24T14:44:48;14.00;1.00
10566;DHT22;5331;48.148;16.326;2023-04-24T14:47:15;14.00;1.00
10566;DHT22;5331;48.148;16.326;2023-04-24T14:49:48;13.90;1.00
10566;DHT22;5331;48.148;16.326;2023-04-24T14:52:15;13.80;1.00
10566;DHT22;5331;48.148;16.326;2023-04-24T14:54:42;13.80;1.00
10566;DHT22;5331;48.148;16.326;2023-04-24T14:57:10;13.80;1.00
10566;DHT22;5331;48.148;16.326;2023-04-24T14:59:37;13.90;1.00
10566;DHT22;5331;48.148;16.326;2023-04-24T15:02:06;13.90;1.00
10566;DHT22;5331;48.148;16.326;2023-04-24T15:04:33;13.80;1.00
10566;DHT22;5331;48.148;16.326;2023-04-24T15:07:01;13.70;1.00
10566;DHT22;5331;48.148;16.326;2023-04-24T15:09:28;13.70;1.00
10566;DHT22;5331;48.148;16.326;2023-04-24T15:11:57;13.60;1.00
10566;DHT22;5331;48.148;16.326;2023-04-24T15:14:24;13.60;1.00
10566;DHT22;5331;48.148;16.326;2023-04-24T15:16:51;13.50;1.00
10566;DHT22;5331;48.148;16.326;2023-04-24T15:19:18;13.50;1.00
10566;DHT22;5331;48.148;16.326;2023-04-24T15:21:45;13.40;1.00
10566;DHT22;5331;48.148;16.326;2023-04-24T15:24:13;13.50;1.00
10566;DHT22;5331;48.148;16.326;2023-04-24T15:26:40;13.40;1.00
10566;DHT22;5331;48.148;16.326;2023-04-24T15:29:07;13.30;1.00
10566;DHT22;5331;48.148;16.326;2023-04-24T15:31:35;13.30;1.00
10566;DHT22;5331;48.148;16.326;2023-04-24T15:34:05;13.30;1.00
10566;DHT22;5331;48.148;16.326;2023-04-24T15:36:32;13.20;1.00
10566;DHT22;5331;48.148;16.326;2023-04-24T15:38:59;13.10;1.00
10566;DHT22;5331;48.148;16.326;2023-04-24T15:41:28;13.00;1.00
10566;DHT22;5331;48.148;16.326;2023-04-24T15:43:57;12.90;1.00
10566;DHT22;5331;48.148;16.326;2023-04-24T15:46:24;12.70;1.00
10566;DHT22;5331;48.148;16.326;2023-04-24T15:48:51;12.60;1.00
10566;DHT22;5331;48.148;16.326;2023-04-24T15:51:18;12.40;1.00